Share

أنطاليا, تركيا

Antalya (LTAI) Elev 174 ft | 36.90 °N, 30.80 °E | Change Station

Current weather conditions updated 23 minutes ago

Scattered Clouds
غيوم متفرقة
55 °F
Feels Like 55 °F
N
5
ريح متغير ريح from شمال شرقی
شروق الشمس 6:19 AM
غروب الشمس 7:34 PM
قمر الأحدب الأخير

Tomorrow is forecast to be Warmer than today.

الضغط 29.92 في
وضوح الرؤية 6.2 أميال
سحابات غيوم متفرقة 3000 ft
نقطة الندى 48 °F
الرطوبة 77%
Rainfall 0.00 في
عمق الثلج Not available.
الأشعة فوق البنفسجية 0 out of 16
Pollen Not available.
جودة الهواء Not available.
Flu Activity Not available.
METAR LTAI 182020Z 05004KT 9999 SCT030 13/09 Q1013 BECMG 16012KT

More Conditions Fewer Conditions

الضغط 29.92 في
وضوح الرؤية 6.2 أميال
سحابات غيوم متفرقة 3000 ft
نقطة الندى 48 °F
الرطوبة 77%
Rainfall 0.00 في
عمق الثلج Not available.
الأشعة فوق البنفسجية 0 out of 16
Pollen Not available.
جودة الهواء Not available.
Flu Activity Not available.
METAR LTAI 182020Z 05004KT 9999 SCT030 13/09 Q1013 BECMG 16012KT

More Conditions Fewer Conditions

10-Day Weather Forecast

Almanac

علم الفلك

Apr. 18, 2014 Rise Set
Actual Time 6:19 AM EEST 7:34 PM EEST
Civil Twilight 5:52 AM EEST 8:01 PM EEST
Nautical Twilight 5:20 AM EEST 8:33 PM EEST
Astronomical Twilight 4:47 AM EEST 9:06 PM EEST
قمر 10:56 PM EEST 8:27 AM EEST
Length Of Visible Light 14h 08m
طول الیوم
13h 14m
Tomorrow will be 2m 11s longer.
الأحدب الأخير, 86% of the Moon is Illuminated
هذا اليوم
الأحدب الأخير
Apr 22
الربع الآخر
Apr 29
New
May 6
الربع الاول
May 14
بدر

Today's Extremes

Country Highs Country Lows

Community

  • What's for Lunch?
    What's for Lunch?
  • SUNRISE THROUGH THE TREES.
    SUNRISE THROUGH THE TREES.
  • Dog Wood Blossoms
    Dog Wood Blossoms
  • Morning Light
    Morning Light
  • New Day
    New Day

WunderPhotos

Upload Photos

1,702,495 photos uploaded!

WunderBlogs® & News

Nearby

جودة الهواء

Not available.

عمق الثلج

Not available.

Coastal Water Temperatures

مكان درجات الحرارة
No Stations Reporting

Earthquake Activity

City Distance Mag. Time & Date
No recent earthquake activity has been reported nearby.
Minimum magnitude displayed is 2.5.

Nearby Weather Stations

There are no personal weather stations in this area.

What do you think?

We're not finished. Please let us know what you like, what you don't like, and what you are still missing.